Time;durP1;ratioP1;P1;durP2;ratioP2;P2;SDS_P1;SDS_P2;PMS_P1;PMS_P2;Temp;Humidity;BMP_temperature;BMP_pressure;BME280_temperature;BME280_humidity;BME280_pressure;Samples;Min_cycle;Max_cycle;Signal;HPM_P1;HPM_P2
2022/08/06 00:01:47;;;;;;;5.35;0.90;;;;;;;;;;5053232;28;20051;-58
2022/08/06 00:04:13;;;;;;;4.38;0.90;;;;;;;;;;5055433;28;20051;-58
2022/08/06 00:06:40;;;;;;;2.28;0.90;;;;;;;;;;5039613;28;20182;-59
2022/08/06 00:09:06;;;;;;;2.83;0.80;;;;;;;;;;5051178;28;20048;-57
2022/08/06 00:11:33;;;;;;;2.45;0.80;;;;;;;;;;5051224;28;20060;-55
2022/08/06 00:13:59;;;;;;;4.07;1.05;;;;;;;;;;5050526;28;20040;-58
2022/08/06 00:16:26;;;;;;;3.50;1.10;;;;;;;;;;5051983;28;20033;-58
2022/08/06 00:18:53;;;;;;;2.72;1.00;;;;;;;;;;5052359;28;20067;-58
2022/08/06 00:21:19;;;;;;;3.75;1.00;;;;;;;;;;5052531;28;20086;-58
2022/08/06 00:23:46;;;;;;;2.92;0.93;;;;;;;;;;5053268;28;21811;-59
2022/08/06 00:26:13;;;;;;;2.22;0.85;;;;;;;;;;5050467;28;20063;-57
2022/08/06 00:28:39;;;;;;;2.28;0.73;;;;;;;;;;5051488;28;20140;-57
2022/08/06 00:31:07;;;;;;;3.47;0.95;;;;;;;;;;5052249;28;20068;-58
2022/08/06 00:33:34;;;;;;;3.03;0.90;;;;;;;;;;5049509;28;20037;-58
2022/08/06 00:36:01;;;;;;;2.55;0.93;;;;;;;;;;5050938;28;20041;-60
2022/08/06 00:38:27;;;;;;;3.60;0.80;;;;;;;;;;5050892;28;20047;-60
2022/08/06 00:40:55;;;;;;;2.35;0.80;;;;;;;;;;5050903;28;20796;-58
2022/08/06 00:43:22;;;;;;;2.25;0.80;;;;;;;;;;5037922;28;20625;-56
2022/08/06 00:45:49;;;;;;;5.93;0.77;;;;;;;;;;5054484;28;20048;-58
2022/08/06 00:48:15;;;;;;;2.47;0.80;;;;;;;;;;5053999;28;20127;-58
2022/08/06 00:50:42;;;;;;;3.67;0.90;;;;;;;;;;5052586;28;20101;-59
2022/08/06 00:53:09;;;;;;;4.22;1.10;;;;;;;;;;5052281;28;20082;-57
2022/08/06 00:55:35;;;;;;;3.15;0.80;;;;;;;;;;5051787;28;20034;-58
2022/08/06 00:58:02;;;;;;;2.50;0.60;;;;;;;;;;5054081;28;20063;-57
2022/08/06 01:00:28;;;;;;;3.10;0.70;;;;;;;;;;5051271;28;20041;-58
2022/08/06 01:02:55;;;;;;;3.30;0.98;;;;;;;;;;5051463;28;20802;-58
2022/08/06 01:05:21;;;;;;;2.67;0.90;;;;;;;;;;5051806;28;20037;-59
2022/08/06 01:07:48;;;;;;;3.67;1.20;;;;;;;;;;5051139;28;20152;-59
2022/08/06 01:10:15;;;;;;;2.58;0.93;;;;;;;;;;5051965;28;20320;-58
2022/08/06 01:12:41;;;;;;;4.38;1.00;;;;;;;;;;5051282;28;20525;-57
2022/08/06 01:15:08;;;;;;;2.67;0.80;;;;;;;;;;5051513;28;20032;-57
2022/08/06 01:17:40;;;;;;;3.05;0.90;;;;;;;;;;5051337;28;20068;-60
2022/08/06 01:20:34;;;;;;;3.03;1.00;;;;;;;;;;5051874;28;20132;-59
2022/08/06 01:23:01;;;;;;;2.17;0.82;;;;;;;;;;5057647;28;20044;-58
2022/08/06 01:25:47;;;;;;;2.65;0.90;;;;;;;;;;5057515;28;20190;-57
2022/08/06 01:28:21;;;;;;;3.10;0.85;;;;;;;;;;5057961;28;20584;-58
2022/08/06 01:30:53;;;;;;;4.82;1.10;;;;;;;;;;5058094;28;20879;-57
2022/08/06 01:33:34;;;;;;;2.70;0.90;;;;;;;;;;5056894;28;20044;-57
2022/08/06 01:36:03;;;;;;;2.63;1.00;;;;;;;;;;5057578;28;20049;-57
2022/08/06 01:38:34;;;;;;;3.17;1.00;;;;;;;;;;5056539;28;21293;-57
2022/08/06 01:41:02;;;;;;;3.08;0.93;;;;;;;;;;5059635;28;20052;-58
2022/08/06 01:43:30;;;;;;;2.70;0.90;;;;;;;;;;5055685;28;20039;-57
2022/08/06 01:45:57;;;;;;;2.97;0.98;;;;;;;;;;5058127;28;20041;-57
2022/08/06 01:48:25;;;;;;;5.18;1.02;;;;;;;;;;5055923;28;20041;-57
2022/08/06 01:50:54;;;;;;;3.15;0.90;;;;;;;;;;5058055;28;20112;-59
2022/08/06 01:53:23;;;;;;;2.80;0.80;;;;;;;;;;5056937;28;20036;-59
2022/08/06 01:55:53;;;;;;;3.25;1.02;;;;;;;;;;5057028;28;20056;-59
2022/08/06 01:58:22;;;;;;;2.70;0.90;;;;;;;;;;5056829;28;20040;-60
2022/08/06 02:00:52;;;;;;;9.80;3.72;;;;;;;;;;5056954;28;20033;-59
2022/08/06 02:03:23;;;;;;;3.13;1.10;;;;;;;;;;5056545;28;20045;-60
2022/08/06 02:05:52;;;;;;;3.25;1.00;;;;;;;;;;5045005;28;20060;-62
2022/08/06 02:08:20;;;;;;;3.10;1.05;;;;;;;;;;5057255;28;20041;-59
2022/08/06 02:10:48;;;;;;;2.60;0.93;;;;;;;;;;5060771;28;20090;-60
2022/08/06 02:13:16;;;;;;;4.07;0.75;;;;;;;;;;5056082;28;20054;-59
2022/08/06 02:15:43;;;;;;;3.53;1.10;;;;;;;;;;5056378;28;20036;-59
2022/08/06 02:18:11;;;;;;;2.90;0.88;;;;;;;;;;5056153;28;20124;-59
2022/08/06 02:20:41;;;;;;;2.97;0.80;;;;;;;;;;5058313;28;20045;-59
2022/08/06 02:23:10;;;;;;;2.95;0.90;;;;;;;;;;5057418;28;20504;-59
2022/08/06 02:25:39;;;;;;;3.45;0.90;;;;;;;;;;5057365;28;20040;-59
2022/08/06 02:28:07;;;;;;;2.95;0.90;;;;;;;;;;5057903;28;20708;-60
2022/08/06 02:30:35;;;;;;;3.05;0.90;;;;;;;;;;5042925;28;20806;-61
2022/08/06 02:33:02;;;;;;;3.30;1.10;;;;;;;;;;5053691;28;20040;-59
2022/08/06 02:35:30;;;;;;;6.05;1.17;;;;;;;;;;5052515;28;22156;-60
2022/08/06 02:38:02;;;;;;;3.05;1.10;;;;;;;;;;5054228;28;20048;-59
2022/08/06 02:40:33;;;;;;;5.18;1.17;;;;;;;;;;5055380;28;20137;-63
2022/08/06 02:43:09;;;;;;;3.55;1.10;;;;;;;;;;5054824;28;20036;-61
2022/08/06 02:45:51;;;;;;;3.13;0.98;;;;;;;;;;5052182;28;20547;-60
2022/08/06 02:48:27;;;;;;;3.38;1.10;;;;;;;;;;5053548;28;20157;-60
2022/08/06 02:50:54;;;;;;;4.03;1.00;;;;;;;;;;5054224;28;20064;-61
2022/08/06 02:53:23;;;;;;;3.25;1.40;;;;;;;;;;5052599;28;20114;-60
2022/08/06 02:55:51;;;;;;;3.10;1.10;;;;;;;;;;5053656;28;20510;-60
2022/08/06 02:58:20;;;;;;;2.97;1.13;;;;;;;;;;5053844;28;20087;-60
2022/08/06 03:00:49;;;;;;;2.65;1.05;;;;;;;;;;5053448;28;20040;-61
2022/08/06 03:03:17;;;;;;;6.32;1.17;;;;;;;;;;5052558;28;20064;-60
2022/08/06 03:05:45;;;;;;;3.28;1.23;;;;;;;;;;5052379;28;20041;-62
2022/08/06 03:08:15;;;;;;;4.10;1.40;;;;;;;;;;5054255;28;20040;-61
2022/08/06 03:10:42;;;;;;;4.15;1.30;;;;;;;;;;5053042;28;20047;-61
2022/08/06 03:13:09;;;;;;;2.85;1.10;;;;;;;;;;5053773;28;20051;-62
2022/08/06 03:15:36;;;;;;;4.45;1.17;;;;;;;;;;5058143;28;20140;-62
2022/08/06 03:18:06;;;;;;;3.33;1.30;;;;;;;;;;5042222;28;20514;-61
2022/08/06 03:20:34;;;;;;;4.15;1.25;;;;;;;;;;5053671;28;20036;-60
2022/08/06 03:23:02;;;;;;;2.90;1.00;;;;;;;;;;5055700;28;20049;-60
2022/08/06 03:25:30;;;;;;;3.78;1.20;;;;;;;;;;5054081;28;20403;-61
2022/08/06 03:27:58;;;;;;;4.07;1.10;;;;;;;;;;5054220;28;20040;-60
2022/08/06 03:30:26;;;;;;;5.45;1.52;;;;;;;;;;5053892;28;20055;-60
2022/08/06 03:32:53;;;;;;;3.83;1.95;;;;;;;;;;5053056;28;20514;-61
2022/08/06 03:35:20;;;;;;;3.40;1.30;;;;;;;;;;5053284;28;20075;-61
2022/08/06 03:37:47;;;;;;;5.57;1.30;;;;;;;;;;5043201;28;20043;-61
2022/08/06 03:40:14;;;;;;;4.03;1.67;;;;;;;;;;5054124;28;20086;-61
2022/08/06 03:42:41;;;;;;;3.60;1.60;;;;;;;;;;5053629;28;20036;-58
2022/08/06 03:45:08;;;;;;;3.70;1.45;;;;;;;;;;5053594;28;20525;-59
2022/08/06 03:47:38;;;;;;;5.28;1.52;;;;;;;;;;5042249;28;20103;-59
2022/08/06 03:50:20;;;;;;;5.03;1.52;;;;;;;;;;5056173;28;20051;-59
2022/08/06 03:52:49;;;;;;;3.47;1.40;;;;;;;;;;5055631;28;20045;-59
2022/08/06 03:55:20;;;;;;;3.10;1.30;;;;;;;;;;5055786;28;20509;-59
2022/08/06 03:57:48;;;;;;;3.13;1.13;;;;;;;;;;5037182;28;20041;-61
2022/08/06 04:00:18;;;;;;;3.45;1.15;;;;;;;;;;5044847;28;20100;-60
2022/08/06 04:02:47;;;;;;;3.80;1.48;;;;;;;;;;5025563;28;21715;-59
2022/08/06 04:05:19;;;;;;;4.13;1.50;;;;;;;;;;5054856;28;20041;-60
2022/08/06 04:07:46;;;;;;;3.83;1.65;;;;;;;;;;5053926;28;20128;-58
2022/08/06 04:10:13;;;;;;;3.60;1.55;;;;;;;;;;5056438;28;20127;-59
2022/08/06 04:12:41;;;;;;;4.05;1.60;;;;;;;;;;5053333;28;20044;-59
2022/08/06 04:15:08;;;;;;;7.22;2.78;;;;;;;;;;5056062;28;20112;-60
2022/08/06 04:17:37;;;;;;;5.88;1.60;;;;;;;;;;5054211;28;20041;-59
2022/08/06 04:20:04;;;;;;;3.75;1.48;;;;;;;;;;5056179;28;20066;-59
2022/08/06 04:22:31;;;;;;;3.42;1.20;;;;;;;;;;5053686;28;20044;-58
2022/08/06 04:24:57;;;;;;;4.47;1.30;;;;;;;;;;5050556;28;20617;-60
2022/08/06 04:27:24;;;;;;;3.70;1.40;;;;;;;;;;5048861;28;20040;-60
2022/08/06 04:29:52;;;;;;;3.20;1.30;;;;;;;;;;5050568;28;20135;-59
2022/08/06 04:32:21;;;;;;;4.03;1.50;;;;;;;;;;5049838;28;20040;-59
2022/08/06 04:34:48;;;;;;;4.38;1.30;;;;;;;;;;5050824;28;20044;-59
2022/08/06 04:37:15;;;;;;;3.00;1.13;;;;;;;;;;5051346;28;20065;-59
2022/08/06 04:39:41;;;;;;;4.40;1.48;;;;;;;;;;5050635;28;20144;-59
2022/08/06 04:42:08;;;;;;;6.20;1.50;;;;;;;;;;5054378;28;20044;-59
2022/08/06 04:44:36;;;;;;;5.63;1.38;;;;;;;;;;5050182;28;20083;-59
2022/08/06 04:47:03;;;;;;;3.05;1.17;;;;;;;;;;5050224;28;20677;-60
2022/08/06 04:49:30;;;;;;;3.25;1.10;;;;;;;;;;5048717;28;20132;-60
2022/08/06 04:51:57;;;;;;;5.88;1.30;;;;;;;;;;5050874;28;20047;-59
2022/08/06 04:54:23;;;;;;;4.05;1.45;;;;;;;;;;5047660;28;20043;-59
2022/08/06 04:56:50;;;;;;;4.78;1.38;;;;;;;;;;5049379;28;20048;-59
2022/08/06 04:59:17;;;;;;;3.50;1.10;;;;;;;;;;5050441;28;20040;-59
2022/08/06 05:01:43;;;;;;;5.68;1.40;;;;;;;;;;5049630;28;20063;-59
2022/08/06 05:04:10;;;;;;;3.65;1.58;;;;;;;;;;5050183;28;20082;-58
2022/08/06 05:06:36;;;;;;;3.60;1.40;;;;;;;;;;5050435;28;20602;-59
2022/08/06 05:09:07;;;;;;;4.43;1.52;;;;;;;;;;5050811;28;20077;-59
2022/08/06 05:11:53;;;;;;;5.88;1.50;;;;;;;;;;5049159;28;20159;-59
2022/08/06 05:14:24;;;;;;;6.28;1.85;;;;;;;;;;5048210;28;20106;-59
2022/08/06 05:16:52;;;;;;;5.63;2.30;;;;;;;;;;5049669;28;20469;-59
2022/08/06 05:19:21;;;;;;;7.43;1.88;;;;;;;;;;5049512;28;20041;-59
2022/08/06 05:21:49;;;;;;;6.60;2.05;;;;;;;;;;5050598;28;20070;-59
2022/08/06 05:24:15;;;;;;;5.63;2.30;;;;;;;;;;5048705;28;20106;-59
2022/08/06 05:26:42;;;;;;;6.85;2.97;;;;;;;;;;5048815;28;20664;-60
2022/08/06 05:29:10;;;;;;;4.82;2.42;;;;;;;;;;5048371;28;20502;-60
2022/08/06 05:31:39;;;;;;;4.22;1.83;;;;;;;;;;5047654;28;20048;-59
2022/08/06 05:34:06;;;;;;;4.22;1.98;;;;;;;;;;5039856;28;20517;-59
2022/08/06 05:36:33;;;;;;;6.63;2.30;;;;;;;;;;5051873;28;20479;-59
2022/08/06 05:38:59;;;;;;;4.32;1.85;;;;;;;;;;5051827;28;20033;-60
2022/08/06 05:41:28;;;;;;;4.65;1.60;;;;;;;;;;5051482;28;20056;-60
2022/08/06 05:43:55;;;;;;;4.85;1.60;;;;;;;;;;5049250;28;20101;-60
2022/08/06 05:46:22;;;;;;;4.00;1.63;;;;;;;;;;5050304;28;20041;-60
2022/08/06 05:48:55;;;;;;;5.15;1.77;;;;;;;;;;5051555;28;20308;-60
2022/08/06 05:51:27;;;;;;;4.25;1.45;;;;;;;;;;5049569;28;20057;-59
2022/08/06 05:53:57;;;;;;;4.38;1.25;;;;;;;;;;5050582;28;20156;-60
2022/08/06 05:56:26;;;;;;;4.05;1.63;;;;;;;;;;5049545;28;20922;-60
2022/08/06 05:58:55;;;;;;;4.43;1.50;;;;;;;;;;5049980;28;20033;-60
2022/08/06 06:01:22;;;;;;;5.18;1.70;;;;;;;;;;5049699;28;20037;-60
2022/08/06 06:03:49;;;;;;;4.20;1.75;;;;;;;;;;5048182;28;20048;-59
2022/08/06 06:06:16;;;;;;;4.68;1.90;;;;;;;;;;5050309;28;20037;-61
2022/08/06 06:08:43;;;;;;;5.68;1.90;;;;;;;;;;5051689;28;20041;-59
2022/08/06 06:11:10;;;;;;;5.70;2.15;;;;;;;;;;5053409;28;20048;-60
2022/08/06 06:13:38;;;;;;;5.60;2.00;;;;;;;;;;5057462;28;20106;-60
2022/08/06 06:16:20;;;;;;;6.13;2.30;;;;;;;;;;5053900;28;20936;-60
2022/08/06 06:18:47;;;;;;;5.73;2.20;;;;;;;;;;5052578;28;20064;-60
2022/08/06 06:21:19;;;;;;;6.85;2.35;;;;;;;;;;5053877;28;20131;-60
2022/08/06 06:24:04;;;;;;;7.13;2.27;;;;;;;;;;5053430;28;20086;-60
2022/08/06 06:26:49;;;;;;;7.93;2.60;;;;;;;;;;5039452;28;20831;-60
2022/08/06 06:29:21;;;;;;;9.57;2.10;;;;;;;;;;5054431;28;20044;-61
2022/08/06 06:32:02;;;;;;;4.38;2.08;;;;;;;;;;5054092;28;20032;-59
2022/08/06 06:34:46;;;;;;;8.88;2.20;;;;;;;;;;5052165;28;20056;-60
2022/08/06 06:37:27;;;;;;;3.97;1.85;;;;;;;;;;5053067;28;20044;-59
2022/08/06 06:40:09;;;;;;;7.50;2.38;;;;;;;;;;5055930;28;20045;-60
2022/08/06 06:42:41;;;;;;;5.28;2.55;;;;;;;;;;5052326;28;20071;-60
2022/08/06 06:45:12;;;;;;;5.03;2.30;;;;;;;;;;5054265;28;20514;-59
2022/08/06 06:47:56;;;;;;;5.28;2.22;;;;;;;;;;5052796;28;20042;-60
2022/08/06 06:50:25;;;;;;;5.63;2.42;;;;;;;;;;5055499;28;20053;-60
2022/08/06 06:52:52;;;;;;;7.78;2.38;;;;;;;;;;5053292;28;20037;-59
2022/08/06 06:55:32;;;;;;;6.68;2.30;;;;;;;;;;5051031;28;20574;-59
2022/08/06 06:58:19;;;;;;;5.57;2.10;;;;;;;;;;5052963;28;20090;-60
2022/08/06 07:00:45;;;;;;;6.25;2.40;;;;;;;;;;5041384;28;20614;-59
2022/08/06 07:03:13;;;;;;;5.30;1.90;;;;;;;;;;5054101;28;20061;-59
2022/08/06 07:05:43;;;;;;;4.20;2.00;;;;;;;;;;5054745;28;20076;-60
2022/08/06 07:08:10;;;;;;;4.60;2.30;;;;;;;;;;5055418;28;20048;-58
2022/08/06 07:10:37;;;;;;;6.13;2.30;;;;;;;;;;5054634;28;20101;-59
2022/08/06 07:13:04;;;;;;;7.20;2.40;;;;;;;;;;5053972;28;20075;-59
2022/08/06 07:15:32;;;;;;;6.15;2.30;;;;;;;;;;5053184;28;20476;-59
2022/08/06 07:17:59;;;;;;;6.28;2.10;;;;;;;;;;5052519;28;20071;-59
2022/08/06 07:20:28;;;;;;;7.07;2.60;;;;;;;;;;5052679;28;20071;-59
2022/08/06 07:22:56;;;;;;;6.03;2.20;;;;;;;;;;5054752;28;20043;-59
2022/08/06 07:25:23;;;;;;;10.10;2.45;;;;;;;;;;5053908;28;20067;-59
2022/08/06 07:27:50;;;;;;;5.15;2.20;;;;;;;;;;5054652;28;20268;-59
2022/08/06 07:30:18;;;;;;;4.60;2.35;;;;;;;;;;5056018;28;20771;-59
2022/08/06 07:32:46;;;;;;;10.18;2.55;;;;;;;;;;5054832;28;20051;-59
2022/08/06 07:35:12;;;;;;;9.90;2.83;;;;;;;;;;5054803;28;20071;-59
2022/08/06 07:37:41;;;;;;;6.70;2.65;;;;;;;;;;5053483;28;20048;-59
2022/08/06 07:40:11;;;;;;;4.63;2.20;;;;;;;;;;5055559;28;20041;-60
2022/08/06 07:42:38;;;;;;;6.07;2.38;;;;;;;;;;5054525;28;20283;-60
2022/08/06 07:45:07;;;;;;;8.20;2.63;;;;;;;;;;5054597;28;20128;-60
2022/08/06 07:47:36;;;;;;;5.93;2.33;;;;;;;;;;5053235;28;20051;-60
2022/08/06 07:50:03;;;;;;;5.22;2.95;;;;;;;;;;5055093;28;20075;-60
2022/08/06 07:52:30;;;;;;;9.90;2.85;;;;;;;;;;5052044;28;20132;-60
2022/08/06 07:54:57;;;;;;;4.68;2.50;;;;;;;;;;5040469;28;20055;-60
2022/08/06 07:57:24;;;;;;;5.85;2.45;;;;;;;;;;5052913;28;21870;-60
2022/08/06 07:59:51;;;;;;;8.32;2.75;;;;;;;;;;5053668;28;20040;-59
2022/08/06 08:02:18;;;;;;;6.40;3.10;;;;;;;;;;5052273;28;20132;-60
2022/08/06 08:07:31;;;;;;;8.73;3.10;;;;;;;;;;5053332;28;20098;-59
2022/08/06 08:09:59;;;;;;;5.22;2.85;;;;;;;;;;5053401;28;20080;-59
2022/08/06 08:12:26;;;;;;;5.95;3.15;;;;;;;;;;5052291;28;20071;-59
2022/08/06 08:14:52;;;;;;;6.72;3.10;;;;;;;;;;5054919;28;20037;-60
2022/08/06 08:17:19;;;;;;;8.75;3.22;;;;;;;;;;5051769;28;20044;-59
2022/08/06 08:19:46;;;;;;;7.82;2.95;;;;;;;;;;5052580;28;20053;-59
2022/08/06 08:22:15;;;;;;;6.50;3.08;;;;;;;;;;5051167;28;20616;-59
2022/08/06 08:24:44;;;;;;;10.60;2.60;;;;;;;;;;5052534;28;20040;-59
2022/08/06 08:27:11;;;;;;;6.97;2.83;;;;;;;;;;5051853;28;20130;-59
2022/08/06 08:29:38;;;;;;;6.50;3.00;;;;;;;;;;5050946;28;20782;-59
2022/08/06 08:32:06;;;;;;;5.97;2.90;;;;;;;;;;5049712;28;20037;-59
2022/08/06 08:34:32;;;;;;;9.32;3.25;;;;;;;;;;5051660;28;20055;-58
2022/08/06 08:36:59;;;;;;;5.95;3.20;;;;;;;;;;5051012;28;20071;-59
2022/08/06 08:39:27;;;;;;;6.85;3.00;;;;;;;;;;5050883;28;20051;-59
2022/08/06 08:42:06;;;;;;;6.80;3.15;;;;;;;;;;5051514;28;20499;-59
2022/08/06 08:44:33;;;;;;;8.10;3.22;;;;;;;;;;5050443;28;20044;-59
2022/08/06 08:47:01;;;;;;;7.93;3.40;;;;;;;;;;5051816;28;20048;-58
2022/08/06 08:49:39;;;;;;;5.57;2.92;;;;;;;;;;5050453;28;20050;-59
2022/08/06 08:52:13;;;;;;;7.10;2.92;;;;;;;;;;5049871;28;20040;-59
2022/08/06 08:54:42;;;;;;;7.32;3.30;;;;;;;;;;5038045;28;20045;-59
2022/08/06 08:57:08;;;;;;;7.20;3.25;;;;;;;;;;5051095;28;20829;-59
2022/08/06 08:59:40;;;;;;;8.10;3.10;;;;;;;;;;5037848;28;20048;-59
2022/08/06 09:02:07;;;;;;;6.85;3.05;;;;;;;;;;5050722;28;20506;-59
2022/08/06 09:04:34;;;;;;;7.13;3.20;;;;;;;;;;5050002;28;20415;-59
2022/08/06 09:07:02;;;;;;;5.45;2.75;;;;;;;;;;5050745;28;20041;-59
2022/08/06 09:09:29;;;;;;;5.38;2.70;;;;;;;;;;5049064;28;20096;-59
2022/08/06 09:11:57;;;;;;;6.57;2.78;;;;;;;;;;5049886;28;20040;-59
2022/08/06 09:14:23;;;;;;;5.75;2.88;;;;;;;;;;5048339;28;20032;-59
2022/08/06 09:16:50;;;;;;;6.68;2.45;;;;;;;;;;5049567;28;20040;-59
2022/08/06 09:19:16;;;;;;;5.03;2.45;;;;;;;;;;5050912;28;20057;-59
2022/08/06 09:21:43;;;;;;;7.88;2.30;;;;;;;;;;5048662;28;20040;-57
2022/08/06 09:24:10;;;;;;;7.03;2.28;;;;;;;;;;5050575;28;20032;-59
2022/08/06 09:26:37;;;;;;;4.53;2.20;;;;;;;;;;5050115;28;20036;-57
2022/08/06 09:29:15;;;;;;;5.35;2.45;;;;;;;;;;5050789;28;20032;-58
2022/08/06 09:31:42;;;;;;;6.03;2.47;;;;;;;;;;5048720;28;20996;-59
2022/08/06 09:34:08;;;;;;;8.02;2.55;;;;;;;;;;5049679;28;20231;-59
2022/08/06 09:36:42;;;;;;;7.70;2.55;;;;;;;;;;5049585;28;20048;-59
2022/08/06 09:39:10;;;;;;;5.40;2.28;;;;;;;;;;5051826;28;20511;-58
2022/08/06 09:41:45;;;;;;;5.80;2.50;;;;;;;;;;5052539;28;20044;-56
2022/08/06 09:44:12;;;;;;;6.03;3.50;;;;;;;;;;5057827;28;20032;-59
2022/08/06 09:46:39;;;;;;;5.93;2.90;;;;;;;;;;5056322;28;20040;-59
2022/08/06 09:49:06;;;;;;;7.82;3.30;;;;;;;;;;5041831;28;20040;-59
2022/08/06 09:51:34;;;;;;;5.82;3.08;;;;;;;;;;5055642;28;20170;-58
2022/08/06 09:54:04;;;;;;;7.13;3.00;;;;;;;;;;5054743;28;20036;-59
2022/08/06 09:56:31;;;;;;;7.78;2.92;;;;;;;;;;5053661;28;20136;-59
2022/08/06 09:59:01;;;;;;;6.03;3.20;;;;;;;;;;5054189;28;20618;-59
2022/08/06 10:01:29;;;;;;;6.90;2.80;;;;;;;;;;5052517;28;20449;-57
2022/08/06 10:03:58;;;;;;;6.80;2.90;;;;;;;;;;5052321;28;20128;-60
2022/08/06 10:06:25;;;;;;;8.23;3.20;;;;;;;;;;5052502;28;20041;-59
2022/08/06 10:09:05;;;;;;;4.95;2.63;;;;;;;;;;5051625;28;20476;-59
2022/08/06 10:11:50;;;;;;;6.78;2.42;;;;;;;;;;5051020;28;20106;-58
2022/08/06 10:14:22;;;;;;;5.38;2.70;;;;;;;;;;5052788;28;20044;-58
2022/08/06 10:17:07;;;;;;;6.93;2.45;;;;;;;;;;5053131;28;20041;-58
2022/08/06 10:19:34;;;;;;;4.88;2.35;;;;;;;;;;5052647;28;20052;-58
2022/08/06 10:22:06;;;;;;;5.82;2.55;;;;;;;;;;5053748;28;20083;-59
2022/08/06 10:24:36;;;;;;;5.35;2.63;;;;;;;;;;5052655;28;20769;-58
2022/08/06 10:27:06;;;;;;;9.57;2.58;;;;;;;;;;5054344;28;20565;-58
2022/08/06 10:29:33;;;;;;;7.07;2.20;;;;;;;;;;5053171;28;20048;-58
2022/08/06 10:32:00;;;;;;;7.97;2.55;;;;;;;;;;5052801;28;20045;-58
2022/08/06 10:34:27;;;;;;;7.80;3.00;;;;;;;;;;5052149;28;21086;-59
2022/08/06 10:37:02;;;;;;;6.65;2.80;;;;;;;;;;5053067;28;20036;-59
2022/08/06 10:39:34;;;;;;;5.90;2.38;;;;;;;;;;5052427;28;20053;-59
2022/08/06 10:42:01;;;;;;;6.22;2.28;;;;;;;;;;5053872;28;20044;-58
2022/08/06 10:44:28;;;;;;;7.05;2.67;;;;;;;;;;5055004;28;20025;-58
2022/08/06 10:46:55;;;;;;;5.22;2.20;;;;;;;;;;5054527;28;20094;-59
2022/08/06 10:49:22;;;;;;;6.78;2.58;;;;;;;;;;5055724;28;20037;-58
2022/08/06 10:51:49;;;;;;;6.95;2.15;;;;;;;;;;5055515;28;20378;-59
2022/08/06 10:54:18;;;;;;;6.65;2.20;;;;;;;;;;5055908;28;20040;-58
2022/08/06 10:56:46;;;;;;;4.65;2.25;;;;;;;;;;5053821;28;20048;-58
2022/08/06 10:59:16;;;;;;;4.20;2.00;;;;;;;;;;5054487;28;20136;-59
2022/08/06 11:01:50;;;;;;;5.65;2.25;;;;;;;;;;5054121;28;20445;-59
2022/08/06 11:04:16;;;;;;;6.60;2.10;;;;;;;;;;5054150;28;20045;-58
2022/08/06 11:06:46;;;;;;;8.15;2.15;;;;;;;;;;5054319;28;20060;-59
2022/08/06 11:09:12;;;;;;;11.35;2.60;;;;;;;;;;5055172;28;20090;-58
2022/08/06 11:11:54;;;;;;;5.53;2.25;;;;;;;;;;5052223;28;20037;-58
2022/08/06 11:14:21;;;;;;;4.63;2.17;;;;;;;;;;5049416;28;20068;-58
2022/08/06 11:16:55;;;;;;;4.70;2.03;;;;;;;;;;5052445;28;20495;-58
2022/08/06 11:19:37;;;;;;;5.88;2.22;;;;;;;;;;5052684;28;20114;-59
2022/08/06 11:22:04;;;;;;;5.50;2.00;;;;;;;;;;5051972;28;20060;-58
2022/08/06 11:24:30;;;;;;;6.55;2.22;;;;;;;;;;5051336;28;20049;-59
2022/08/06 11:26:57;;;;;;;4.63;2.20;;;;;;;;;;5052076;28;20055;-59
2022/08/06 11:29:24;;;;;;;5.50;2.10;;;;;;;;;;5052280;28;20041;-59
2022/08/06 11:31:51;;;;;;;6.07;2.05;;;;;;;;;;5052648;28;20630;-59
2022/08/06 11:34:19;;;;;;;4.85;2.05;;;;;;;;;;5053100;28;20044;-59
2022/08/06 11:36:50;;;;;;;4.47;2.20;;;;;;;;;;5050869;28;20040;-60
2022/08/06 11:39:21;;;;;;;4.25;1.95;;;;;;;;;;5038274;28;20048;-59
2022/08/06 11:41:52;;;;;;;6.15;2.17;;;;;;;;;;5050045;28;20044;-60
2022/08/06 11:44:19;;;;;;;4.35;1.65;;;;;;;;;;5050613;28;20045;-59
2022/08/06 11:46:47;;;;;;;5.05;1.77;;;;;;;;;;5053435;28;20494;-59
2022/08/06 11:49:14;;;;;;;6.43;1.85;;;;;;;;;;5053602;28;20040;-59
2022/08/06 11:51:44;;;;;;;6.80;2.03;;;;;;;;;;5052903;28;20115;-59
2022/08/06 11:54:11;;;;;;;4.88;2.08;;;;;;;;;;5053466;28;20052;-58
2022/08/06 11:56:57;;;;;;;6.50;2.15;;;;;;;;;;5051799;28;20045;-58
2022/08/06 11:59:24;;;;;;;6.47;2.20;;;;;;;;;;5051067;28;20037;-58
2022/08/06 12:01:51;;;;;;;9.63;2.63;;;;;;;;;;5040139;28;20067;-59
2022/08/06 12:04:33;;;;;;;9.27;2.35;;;;;;;;;;5053217;28;20036;-59
2022/08/06 12:07:21;;;;;;;6.80;2.33;;;;;;;;;;5049252;28;20041;-59
2022/08/06 12:10:01;;;;;;;5.80;2.80;;;;;;;;;;5051477;28;20426;-59
2022/08/06 12:12:28;;;;;;;5.90;2.40;;;;;;;;;;5053148;28;20691;-60
2022/08/06 12:14:58;;;;;;;7.60;2.75;;;;;;;;;;5052049;28;20075;-60
2022/08/06 12:17:26;;;;;;;4.18;1.92;;;;;;;;;;5041061;28;20520;-59
2022/08/06 12:19:53;;;;;;;5.85;2.28;;;;;;;;;;5053071;28;20044;-60
2022/08/06 12:22:21;;;;;;;5.80;2.45;;;;;;;;;;5050756;28;20040;-59
2022/08/06 12:24:51;;;;;;;4.93;2.25;;;;;;;;;;5050718;28;20232;-60
2022/08/06 12:27:18;;;;;;;6.55;2.45;;;;;;;;;;5051394;28;20041;-60
2022/08/06 12:29:45;;;;;;;10.55;2.67;;;;;;;;;;5051195;28;20414;-60
2022/08/06 12:32:21;;;;;;;10.65;3.13;;;;;;;;;;5050999;28;20518;-60
2022/08/06 12:34:48;;;;;;;10.50;2.95;;;;;;;;;;5051688;28;20090;-58
2022/08/06 12:37:15;;;;;;;9.40;2.95;;;;;;;;;;5052771;28;20955;-58
2022/08/06 12:42:28;;;;;;;6.80;2.55;;;;;;;;;;5055892;28;20075;-59
2022/08/06 12:44:54;;;;;;;6.70;2.55;;;;;;;;;;5053640;28;20071;-56
2022/08/06 12:47:22;;;;;;;6.95;2.83;;;;;;;;;;5052279;28;20044;-55
2022/08/06 12:49:49;;;;;;;7.55;2.78;;;;;;;;;;5053584;28;20049;-57
2022/08/06 12:52:22;;;;;;;8.10;2.60;;;;;;;;;;5053289;28;20147;-56
2022/08/06 12:54:50;;;;;;;7.80;2.92;;;;;;;;;;5051835;28;20041;-56
2022/08/06 12:57:27;;;;;;;5.90;2.67;;;;;;;;;;5051947;28;20461;-56
2022/08/06 12:59:55;;;;;;;8.23;2.85;;;;;;;;;;5051622;28;20052;-58
2022/08/06 13:02:24;;;;;;;7.63;2.70;;;;;;;;;;5049630;28;20075;-58
2022/08/06 13:04:51;;;;;;;4.80;2.53;;;;;;;;;;5050771;28;20037;-56
2022/08/06 13:07:19;;;;;;;7.75;2.85;;;;;;;;;;5053852;28;20066;-57
2022/08/06 13:09:47;;;;;;;10.02;2.53;;;;;;;;;;5052071;28;20048;-57
2022/08/06 13:12:14;;;;;;;7.65;2.70;;;;;;;;;;5050690;28;20059;-58
2022/08/06 13:14:50;;;;;;;4.50;1.75;;;;;;;;;;5051101;28;20163;-58
2022/08/06 13:17:17;;;;;;;4.78;1.90;;;;;;;;;;5050734;28;20045;-58
2022/08/06 13:19:54;;;;;;;8.07;2.00;;;;;;;;;;5049619;28;20919;-58
2022/08/06 13:22:21;;;;;;;4.75;2.00;;;;;;;;;;5049498;28;20040;-58
2022/08/06 13:24:48;;;;;;;5.90;2.20;;;;;;;;;;5051027;28;20036;-58
2022/08/06 13:27:15;;;;;;;5.65;2.30;;;;;;;;;;5050734;28;20063;-58
2022/08/06 13:30:01;;;;;;;5.65;2.10;;;;;;;;;;5048964;28;20044;-58
2022/08/06 13:32:28;;;;;;;7.10;2.35;;;;;;;;;;5048739;28;20386;-57
2022/08/06 13:34:56;;;;;;;7.03;2.30;;;;;;;;;;5050371;28;20177;-56
2022/08/06 13:37:43;;;;;;;4.57;2.05;;;;;;;;;;5048923;28;20036;-58
2022/08/06 13:40:10;;;;;;;4.82;2.08;;;;;;;;;;5049156;28;20094;-59
2022/08/06 13:42:53;;;;;;;3.70;1.80;;;;;;;;;;5046896;28;20033;-59
2022/08/06 13:45:24;;;;;;;5.97;1.67;;;;;;;;;;5047653;28;20045;-58
2022/08/06 13:47:52;;;;;;;4.88;1.85;;;;;;;;;;5049476;28;20529;-58
2022/08/06 13:50:19;;;;;;;4.65;1.80;;;;;;;;;;5049986;28;20084;-58
2022/08/06 13:52:46;;;;;;;4.13;1.77;;;;;;;;;;5049876;28;20056;-59
2022/08/06 13:55:13;;;;;;;4.82;1.92;;;;;;;;;;5049567;28;20041;-59
2022/08/06 13:57:39;;;;;;;4.88;1.67;;;;;;;;;;5049740;28;20068;-59
2022/08/06 14:00:07;;;;;;;7.25;2.05;;;;;;;;;;5049140;28;20037;-59
2022/08/06 14:02:34;;;;;;;6.85;1.90;;;;;;;;;;5048526;28;20123;-59
2022/08/06 14:05:01;;;;;;;5.25;2.05;;;;;;;;;;5049071;28;20117;-59
2022/08/06 14:07:27;;;;;;;7.40;1.98;;;;;;;;;;5049433;28;20037;-59
2022/08/06 14:09:54;;;;;;;9.25;2.10;;;;;;;;;;5048778;28;20054;-59
2022/08/06 14:12:21;;;;;;;5.95;2.20;;;;;;;;;;5047406;28;20499;-59
2022/08/06 14:14:48;;;;;;;4.95;2.03;;;;;;;;;;5036461;28;20044;-59
2022/08/06 14:17:15;;;;;;;4.80;2.17;;;;;;;;;;5049075;28;20044;-59
2022/08/06 14:19:42;;;;;;;7.57;2.08;;;;;;;;;;5048623;28;20047;-58
2022/08/06 14:22:09;;;;;;;4.68;1.90;;;;;;;;;;5047378;28;20960;-59
2022/08/06 14:24:36;;;;;;;7.30;2.05;;;;;;;;;;5049140;28;20044;-59
2022/08/06 14:27:02;;;;;;;7.55;2.53;;;;;;;;;;5034786;28;20937;-59
2022/08/06 14:29:29;;;;;;;9.55;2.40;;;;;;;;;;5050179;28;20037;-59
2022/08/06 14:31:55;;;;;;;7.03;2.10;;;;;;;;;;5052082;28;20047;-59
2022/08/06 14:34:22;;;;;;;5.15;2.17;;;;;;;;;;5051670;28;20383;-59
2022/08/06 14:36:49;;;;;;;5.85;1.98;;;;;;;;;;5053773;28;20028;-59
2022/08/06 14:39:15;;;;;;;7.60;2.20;;;;;;;;;;5053952;28;20047;-59
2022/08/06 14:47:12;;;;;;;7.95;1.60;;;;;;;;;;5054499;28;20761;-59
2022/08/06 14:49:39;;;;;;;3.45;1.45;;;;;;;;;;5052484;28;20051;-60
2022/08/06 14:52:06;;;;;;;4.85;1.50;;;;;;;;;;5054143;28;20221;-59
2022/08/06 14:54:33;;;;;;;3.22;1.30;;;;;;;;;;5052960;28;20546;-60
2022/08/06 14:57:01;;;;;;;3.53;1.30;;;;;;;;;;5052550;28;20884;-60
2022/08/06 14:59:27;;;;;;;3.65;1.23;;;;;;;;;;5053141;28;21776;-57
2022/08/06 15:01:54;;;;;;;3.38;0.93;;;;;;;;;;5052752;28;20553;-59
2022/08/06 15:04:21;;;;;;;4.22;1.45;;;;;;;;;;5051590;28;20083;-59
2022/08/06 15:06:48;;;;;;;7.22;1.30;;;;;;;;;;5053322;28;20398;-60